CZA weather

Chichen Itza International Airport
Chichen Itza, Yucatan, Mexico

Public forecast

Using degrees Celsius for public forecast. Weather courtesy of forecast.io.

METAR (pilot weather report)

Report is more than 6 hours old.

Retrieved 2019/05/24 19:44 UTC (11 hours ago):

MMCT 241944Z 05010KT 8SM BKN025 37/16 A2985 RMK 8/400

TAF (pilot weather forecast)

Closest forecast is Licenciado Manuel Crescencio Rejon Int Airport, 70.3 nm (130.2 km) WNW. Retrieved 2019/05/25 06:17 UTC (4 minutes ago):

TAF MMMD 250410Z 2506/2612 10010KT P6SM SKC TX37/2520Z TN25/2512Z FM251600 12010KT P6SM BKN020 FM252200 12015KT P6SM SCT015 FM260400 08005KT P6SM SKC